首页
METAR-TAF:

METAR-TAF

机场 :

汶萊國際機場

文莱, 文莱

纬度: 04-56N, 经度: 114-56E, 海拔: 22米

当前天气观测

该预报发布于27分钟前的00:00 UTC
风速4节,风向
温度 27°C
湿度 94%
气压 1012 hPa
能见度10公里或以上
少量云层高于1400英尺
少量云层高于1500英尺, 积雨云.
多云层高于14000英尺

METAR: WBSB 080000Z 17004KT 9999 FEW014 FEW015CB BKN140 27/26 Q1012 NOSIG

时间: 08:27 (00:27 UTC)

预报

该预报发布于1小时和27分钟前的23:00 UTC
预报有效从08日的 00点(UTC)到 09日的 06点(UTC)
风速2节,风向南转西南
能见度10公里或以上
少量云层高于1500英尺
少量云层高于1600英尺, 积雨云.
成为
从 08日的 03点(UTC)到 08日的 05点(UTC)
风速10节,风向北转西北
散云层高于1600英尺
少量云层高于1700英尺, 积雨云.
短暂存在
从 08日的 04点(UTC)到 08日的 06点(UTC)
能見度: 7000
阵雨

TAF: WBSB 072300Z 0800/0906 20002KT 9999 FEW015 FEW016CB BECMG 0803/0805 34010KT SCT016 FEW017CB TEMPO 0804/0806 7000 SHRA

超过4000个机场的气象观测和天气预报(METAR&TAF报告)。

可查询的气象台以黄色和红色小点在地图上表示。

将鼠标移到小点上方,可查看气象台名称。

然后点击查看天气观测和预报。

如需切换地图:点击带黑十字的绿色按钮放大地图;点击带横线的绿色按钮缩小地图;或者点击绿色箭头查看邻近地区的地图。


METAR-TAF: